sensor_id;sensor_type;location;lat;lon;timestamp;P1;durP1;ratioP1;P2;durP2;ratioP2
23990;SDS011;12205;50.600;4.608;2023-09-12T00:00:41;11.05;;;4.28;;
23990;SDS011;12205;50.600;4.608;2023-09-12T00:03:08;13.57;;;4.50;;
23990;SDS011;12205;50.600;4.608;2023-09-12T00:05:35;14.82;;;5.18;;
23990;SDS011;12205;50.600;4.608;2023-09-12T00:08:02;10.32;;;3.95;;
23990;SDS011;12205;50.600;4.608;2023-09-12T00:10:30;12.70;;;4.45;;
23990;SDS011;12205;50.600;4.608;2023-09-12T00:12:57;17.08;;;5.10;;
23990;SDS011;12205;50.600;4.608;2023-09-12T00:15:27;17.88;;;5.05;;
23990;SDS011;12205;50.600;4.608;2023-09-12T00:17:54;13.27;;;5.15;;
23990;SDS011;12205;50.600;4.608;2023-09-12T00:20:21;10.60;;;4.20;;
23990;SDS011;12205;50.600;4.608;2023-09-12T00:22:48;12.80;;;5.22;;
23990;SDS011;12205;50.600;4.608;2023-09-12T00:25:15;12.70;;;4.90;;
23990;SDS011;12205;50.600;4.608;2023-09-12T00:27:42;13.02;;;4.90;;
23990;SDS011;12205;50.600;4.608;2023-09-12T00:30:09;16.67;;;4.70;;
23990;SDS011;12205;50.600;4.608;2023-09-12T00:32:38;12.10;;;4.80;;
23990;SDS011;12205;50.600;4.608;2023-09-12T00:35:05;11.32;;;4.35;;
23990;SDS011;12205;50.600;4.608;2023-09-12T00:37:33;12.23;;;4.50;;
23990;SDS011;12205;50.600;4.608;2023-09-12T00:40:00;12.55;;;4.97;;
23990;SDS011;12205;50.600;4.608;2023-09-12T00:42:26;11.00;;;4.28;;
23990;SDS011;12205;50.600;4.608;2023-09-12T00:44:53;13.45;;;4.85;;
23990;SDS011;12205;50.600;4.608;2023-09-12T00:47:21;12.77;;;4.97;;
23990;SDS011;12205;50.600;4.608;2023-09-12T00:49:50;17.50;;;6.32;;
23990;SDS011;12205;50.600;4.608;2023-09-12T00:52:18;13.32;;;5.18;;
23990;SDS011;12205;50.600;4.608;2023-09-12T00:54:48;8.98;;;4.20;;
23990;SDS011;12205;50.600;4.608;2023-09-12T00:57:15;8.88;;;4.00;;
23990;SDS011;12205;50.600;4.608;2023-09-12T00:59:42;8.93;;;4.15;;
23990;SDS011;12205;50.600;4.608;2023-09-12T01:02:09;11.90;;;5.10;;
23990;SDS011;12205;50.600;4.608;2023-09-12T01:04:36;15.80;;;5.15;;
23990;SDS011;12205;50.600;4.608;2023-09-12T01:07:05;10.15;;;4.07;;
23990;SDS011;12205;50.600;4.608;2023-09-12T01:09:32;11.82;;;4.38;;
23990;SDS011;12205;50.600;4.608;2023-09-12T01:11:59;12.15;;;4.63;;
23990;SDS011;12205;50.600;4.608;2023-09-12T01:14:28;12.95;;;4.63;;
23990;SDS011;12205;50.600;4.608;2023-09-12T01:16:55;13.48;;;5.15;;
23990;SDS011;12205;50.600;4.608;2023-09-12T01:19:22;12.35;;;4.68;;
23990;SDS011;12205;50.600;4.608;2023-09-12T01:22:00;12.20;;;4.68;;
23990;SDS011;12205;50.600;4.608;2023-09-12T01:27:50;12.50;;;4.55;;
23990;SDS011;12205;50.600;4.608;2023-09-12T01:32:47;12.02;;;4.30;;
23990;SDS011;12205;50.600;4.608;2023-09-12T01:35:14;13.18;;;4.35;;
23990;SDS011;12205;50.600;4.608;2023-09-12T01:37:41;14.57;;;4.32;;
23990;SDS011;12205;50.600;4.608;2023-09-12T01:40:08;11.98;;;4.07;;
23990;SDS011;12205;50.600;4.608;2023-09-12T01:42:37;10.95;;;4.18;;
23990;SDS011;12205;50.600;4.608;2023-09-12T01:47:38;11.00;;;4.05;;
23990;SDS011;12205;50.600;4.608;2023-09-12T01:50:06;11.93;;;4.57;;
23990;SDS011;12205;50.600;4.608;2023-09-12T01:52:38;10.60;;;3.78;;
23990;SDS011;12205;50.600;4.608;2023-09-12T01:55:06;11.50;;;3.90;;
23990;SDS011;12205;50.600;4.608;2023-09-12T01:57:35;16.23;;;5.15;;
23990;SDS011;12205;50.600;4.608;2023-09-12T02:00:03;15.25;;;4.88;;
23990;SDS011;12205;50.600;4.608;2023-09-12T02:02:32;12.00;;;4.70;;
23990;SDS011;12205;50.600;4.608;2023-09-12T02:05:07;12.27;;;4.40;;
23990;SDS011;12205;50.600;4.608;2023-09-12T02:07:38;15.98;;;5.22;;
23990;SDS011;12205;50.600;4.608;2023-09-12T02:10:07;17.52;;;5.47;;
23990;SDS011;12205;50.600;4.608;2023-09-12T02:12:36;16.92;;;5.50;;
23990;SDS011;12205;50.600;4.608;2023-09-12T02:15:03;15.35;;;4.97;;
23990;SDS011;12205;50.600;4.608;2023-09-12T02:17:32;14.57;;;5.00;;
23990;SDS011;12205;50.600;4.608;2023-09-12T02:19:59;12.13;;;4.90;;
23990;SDS011;12205;50.600;4.608;2023-09-12T02:22:26;15.63;;;5.32;;
23990;SDS011;12205;50.600;4.608;2023-09-12T02:24:53;16.35;;;5.70;;
23990;SDS011;12205;50.600;4.608;2023-09-12T02:27:19;12.95;;;4.70;;
23990;SDS011;12205;50.600;4.608;2023-09-12T02:29:46;9.68;;;4.72;;
23990;SDS011;12205;50.600;4.608;2023-09-12T02:32:14;9.43;;;3.88;;
23990;SDS011;12205;50.600;4.608;2023-09-12T02:34:42;15.13;;;5.30;;
23990;SDS011;12205;50.600;4.608;2023-09-12T02:37:09;12.27;;;5.25;;
23990;SDS011;12205;50.600;4.608;2023-09-12T02:39:36;15.32;;;5.32;;
23990;SDS011;12205;50.600;4.608;2023-09-12T02:42:03;13.55;;;5.38;;
23990;SDS011;12205;50.600;4.608;2023-09-12T02:44:30;17.38;;;5.47;;
23990;SDS011;12205;50.600;4.608;2023-09-12T02:46:57;12.00;;;4.70;;
23990;SDS011;12205;50.600;4.608;2023-09-12T02:49:24;12.43;;;5.20;;
23990;SDS011;12205;50.600;4.608;2023-09-12T02:51:53;12.95;;;5.05;;
23990;SDS011;12205;50.600;4.608;2023-09-12T02:54:19;15.60;;;5.43;;
23990;SDS011;12205;50.600;4.608;2023-09-12T02:56:46;17.50;;;6.10;;
23990;SDS011;12205;50.600;4.608;2023-09-12T02:59:13;17.08;;;5.85;;
23990;SDS011;12205;50.600;4.608;2023-09-12T03:01:40;14.82;;;5.85;;
23990;SDS011;12205;50.600;4.608;2023-09-12T03:04:07;14.55;;;5.85;;
23990;SDS011;12205;50.600;4.608;2023-09-12T03:06:34;13.93;;;5.50;;
23990;SDS011;12205;50.600;4.608;2023-09-12T03:09:03;12.07;;;5.47;;
23990;SDS011;12205;50.600;4.608;2023-09-12T03:11:31;17.73;;;6.40;;
23990;SDS011;12205;50.600;4.608;2023-09-12T03:13:58;16.23;;;6.32;;
23990;SDS011;12205;50.600;4.608;2023-09-12T03:16:25;20.38;;;7.10;;
23990;SDS011;12205;50.600;4.608;2023-09-12T03:18:52;26.88;;;9.20;;
23990;SDS011;12205;50.600;4.608;2023-09-12T03:21:19;19.08;;;7.57;;
23990;SDS011;12205;50.600;4.608;2023-09-12T03:23:46;17.92;;;7.75;;
23990;SDS011;12205;50.600;4.608;2023-09-12T03:26:14;24.13;;;7.72;;
23990;SDS011;12205;50.600;4.608;2023-09-12T03:28:42;22.17;;;8.95;;
23990;SDS011;12205;50.600;4.608;2023-09-12T03:31:09;26.65;;;9.32;;
23990;SDS011;12205;50.600;4.608;2023-09-12T03:33:38;22.98;;;9.07;;
23990;SDS011;12205;50.600;4.608;2023-09-12T03:36:06;23.05;;;9.25;;
23990;SDS011;12205;50.600;4.608;2023-09-12T03:38:34;22.40;;;8.80;;
23990;SDS011;12205;50.600;4.608;2023-09-12T03:41:01;25.85;;;10.38;;
23990;SDS011;12205;50.600;4.608;2023-09-12T03:43:30;28.77;;;10.80;;
23990;SDS011;12205;50.600;4.608;2023-09-12T03:45:57;29.52;;;11.05;;
23990;SDS011;12205;50.600;4.608;2023-09-12T03:48:24;29.30;;;10.02;;
23990;SDS011;12205;50.600;4.608;2023-09-12T03:50:51;23.70;;;9.30;;
23990;SDS011;12205;50.600;4.608;2023-09-12T03:53:18;24.80;;;9.60;;
23990;SDS011;12205;50.600;4.608;2023-09-12T03:55:45;28.95;;;10.52;;
23990;SDS011;12205;50.600;4.608;2023-09-12T03:58:12;29.15;;;10.65;;
23990;SDS011;12205;50.600;4.608;2023-09-12T04:00:40;22.45;;;9.10;;
23990;SDS011;12205;50.600;4.608;2023-09-12T04:03:07;25.08;;;10.02;;
23990;SDS011;12205;50.600;4.608;2023-09-12T04:05:34;22.98;;;9.32;;
23990;SDS011;12205;50.600;4.608;2023-09-12T04:08:01;26.27;;;10.35;;
23990;SDS011;12205;50.600;4.608;2023-09-12T04:10:29;30.67;;;11.48;;
23990;SDS011;12205;50.600;4.608;2023-09-12T04:12:57;36.42;;;11.77;;
23990;SDS011;12205;50.600;4.608;2023-09-12T04:15:24;27.55;;;10.25;;
23990;SDS011;12205;50.600;4.608;2023-09-12T04:17:52;29.20;;;10.38;;
23990;SDS011;12205;50.600;4.608;2023-09-12T04:20:19;28.55;;;11.07;;
23990;SDS011;12205;50.600;4.608;2023-09-12T04:22:46;29.27;;;11.20;;
23990;SDS011;12205;50.600;4.608;2023-09-12T04:25:13;26.92;;;10.40;;
23990;SDS011;12205;50.600;4.608;2023-09-12T04:27:40;30.38;;;11.25;;
23990;SDS011;12205;50.600;4.608;2023-09-12T04:30:08;24.60;;;9.40;;
23990;SDS011;12205;50.600;4.608;2023-09-12T04:32:35;23.42;;;10.25;;
23990;SDS011;12205;50.600;4.608;2023-09-12T04:35:04;26.17;;;10.15;;
23990;SDS011;12205;50.600;4.608;2023-09-12T04:37:31;29.17;;;9.85;;
23990;SDS011;12205;50.600;4.608;2023-09-12T04:39:58;23.52;;;9.70;;
23990;SDS011;12205;50.600;4.608;2023-09-12T04:42:25;28.60;;;10.10;;
23990;SDS011;12205;50.600;4.608;2023-09-12T04:44:52;26.70;;;10.43;;
23990;SDS011;12205;50.600;4.608;2023-09-12T04:47:19;21.85;;;9.02;;
23990;SDS011;12205;50.600;4.608;2023-09-12T04:49:47;27.20;;;10.95;;
23990;SDS011;12205;50.600;4.608;2023-09-12T04:52:15;34.33;;;11.32;;
23990;SDS011;12205;50.600;4.608;2023-09-12T04:54:42;28.92;;;11.68;;
23990;SDS011;12205;50.600;4.608;2023-09-12T04:57:10;47.35;;;11.95;;
23990;SDS011;12205;50.600;4.608;2023-09-12T04:59:37;25.45;;;10.98;;
23990;SDS011;12205;50.600;4.608;2023-09-12T05:02:04;31.88;;;10.80;;
23990;SDS011;12205;50.600;4.608;2023-09-12T05:04:31;52.38;;;12.40;;
23990;SDS011;12205;50.600;4.608;2023-09-12T05:06:58;46.30;;;12.35;;
23990;SDS011;12205;50.600;4.608;2023-09-12T05:09:26;32.92;;;12.15;;
23990;SDS011;12205;50.600;4.608;2023-09-12T05:11:53;36.78;;;11.63;;
23990;SDS011;12205;50.600;4.608;2023-09-12T05:14:20;25.70;;;10.88;;
23990;SDS011;12205;50.600;4.608;2023-09-12T05:16:47;58.95;;;12.07;;
23990;SDS011;12205;50.600;4.608;2023-09-12T05:19:14;105.00;;;13.93;;
23990;SDS011;12205;50.600;4.608;2023-09-12T05:21:41;122.80;;;13.65;;
23990;SDS011;12205;50.600;4.608;2023-09-12T05:24:08;73.10;;;12.73;;
23990;SDS011;12205;50.600;4.608;2023-09-12T05:26:37;28.23;;;10.93;;
23990;SDS011;12205;50.600;4.608;2023-09-12T05:29:04;29.15;;;11.23;;
23990;SDS011;12205;50.600;4.608;2023-09-12T05:31:31;25.48;;;11.00;;
23990;SDS011;12205;50.600;4.608;2023-09-12T05:33:59;23.95;;;10.57;;
23990;SDS011;12205;50.600;4.608;2023-09-12T05:36:26;115.82;;;13.88;;
23990;SDS011;12205;50.600;4.608;2023-09-12T05:38:53;161.95;;;15.98;;
23990;SDS011;12205;50.600;4.608;2023-09-12T05:41:20;19.63;;;8.75;;
23990;SDS011;12205;50.600;4.608;2023-09-12T05:43:48;45.90;;;11.02;;
23990;SDS011;12205;50.600;4.608;2023-09-12T05:46:15;25.35;;;9.63;;
23990;SDS011;12205;50.600;4.608;2023-09-12T05:48:42;23.40;;;9.57;;
23990;SDS011;12205;50.600;4.608;2023-09-12T05:51:10;18.25;;;8.82;;
23990;SDS011;12205;50.600;4.608;2023-09-12T05:53:37;23.02;;;9.50;;
23990;SDS011;12205;50.600;4.608;2023-09-12T05:56:04;21.55;;;9.35;;
23990;SDS011;12205;50.600;4.608;2023-09-12T05:58:31;23.00;;;8.48;;
23990;SDS011;12205;50.600;4.608;2023-09-12T06:01:01;20.83;;;8.77;;
23990;SDS011;12205;50.600;4.608;2023-09-12T06:03:27;19.25;;;8.75;;
23990;SDS011;12205;50.600;4.608;2023-09-12T06:05:55;33.22;;;9.65;;
23990;SDS011;12205;50.600;4.608;2023-09-12T06:08:21;23.73;;;9.63;;
23990;SDS011;12205;50.600;4.608;2023-09-12T06:10:49;21.25;;;9.32;;
23990;SDS011;12205;50.600;4.608;2023-09-12T06:13:18;22.38;;;10.20;;
23990;SDS011;12205;50.600;4.608;2023-09-12T06:15:45;25.73;;;9.88;;
23990;SDS011;12205;50.600;4.608;2023-09-12T06:18:14;21.58;;;9.32;;
23990;SDS011;12205;50.600;4.608;2023-09-12T06:20:41;23.20;;;9.38;;
23990;SDS011;12205;50.600;4.608;2023-09-12T06:23:08;17.90;;;8.75;;
23990;SDS011;12205;50.600;4.608;2023-09-12T06:25:35;22.25;;;8.70;;
23990;SDS011;12205;50.600;4.608;2023-09-12T06:28:02;35.25;;;9.00;;
23990;SDS011;12205;50.600;4.608;2023-09-12T06:30:29;45.30;;;9.60;;
23990;SDS011;12205;50.600;4.608;2023-09-12T06:32:56;20.02;;;8.52;;
23990;SDS011;12205;50.600;4.608;2023-09-12T06:35:25;21.30;;;8.85;;
23990;SDS011;12205;50.600;4.608;2023-09-12T06:37:51;40.53;;;10.15;;
23990;SDS011;12205;50.600;4.608;2023-09-12T06:40:21;18.83;;;8.10;;
23990;SDS011;12205;50.600;4.608;2023-09-12T06:42:48;19.42;;;8.40;;
23990;SDS011;12205;50.600;4.608;2023-09-12T06:45:15;17.88;;;8.55;;
23990;SDS011;12205;50.600;4.608;2023-09-12T06:47:42;24.08;;;9.55;;
23990;SDS011;12205;50.600;4.608;2023-09-12T06:50:09;16.45;;;7.90;;
23990;SDS011;12205;50.600;4.608;2023-09-12T06:52:37;19.83;;;8.63;;
23990;SDS011;12205;50.600;4.608;2023-09-12T06:55:04;22.55;;;8.27;;
23990;SDS011;12205;50.600;4.608;2023-09-12T06:57:32;23.80;;;8.73;;
23990;SDS011;12205;50.600;4.608;2023-09-12T06:59:59;31.73;;;9.73;;
23990;SDS011;12205;50.600;4.608;2023-09-12T07:02:26;40.30;;;10.02;;
23990;SDS011;12205;50.600;4.608;2023-09-12T07:04:53;23.52;;;9.32;;
23990;SDS011;12205;50.600;4.608;2023-09-12T07:07:22;19.02;;;8.95;;
23990;SDS011;12205;50.600;4.608;2023-09-12T07:09:50;19.40;;;8.80;;
23990;SDS011;12205;50.600;4.608;2023-09-12T07:12:17;21.65;;;9.48;;
23990;SDS011;12205;50.600;4.608;2023-09-12T07:14:44;24.67;;;9.75;;
23990;SDS011;12205;50.600;4.608;2023-09-12T07:17:11;20.67;;;9.55;;
23990;SDS011;12205;50.600;4.608;2023-09-12T07:19:38;26.00;;;10.32;;
23990;SDS011;12205;50.600;4.608;2023-09-12T07:22:05;26.13;;;10.25;;
23990;SDS011;12205;50.600;4.608;2023-09-12T07:24:32;24.40;;;10.48;;
23990;SDS011;12205;50.600;4.608;2023-09-12T07:27:00;26.15;;;10.43;;
23990;SDS011;12205;50.600;4.608;2023-09-12T07:29:27;27.63;;;11.77;;
23990;SDS011;12205;50.600;4.608;2023-09-12T07:31:54;30.50;;;11.07;;
23990;SDS011;12205;50.600;4.608;2023-09-12T07:34:23;25.92;;;11.02;;
23990;SDS011;12205;50.600;4.608;2023-09-12T07:36:50;30.27;;;12.05;;
23990;SDS011;12205;50.600;4.608;2023-09-12T07:39:17;28.70;;;10.50;;
23990;SDS011;12205;50.600;4.608;2023-09-12T07:41:44;25.15;;;10.75;;
23990;SDS011;12205;50.600;4.608;2023-09-12T07:44:12;29.50;;;11.60;;
23990;SDS011;12205;50.600;4.608;2023-09-12T07:46:40;36.33;;;12.20;;
23990;SDS011;12205;50.600;4.608;2023-09-12T07:49:07;29.45;;;12.20;;
23990;SDS011;12205;50.600;4.608;2023-09-12T07:51:34;26.98;;;11.95;;
23990;SDS011;12205;50.600;4.608;2023-09-12T07:54:01;31.92;;;11.77;;
23990;SDS011;12205;50.600;4.608;2023-09-12T07:56:28;29.42;;;11.80;;
23990;SDS011;12205;50.600;4.608;2023-09-12T07:58:57;28.67;;;12.00;;
23990;SDS011;12205;50.600;4.608;2023-09-12T08:01:26;29.50;;;12.40;;
23990;SDS011;12205;50.600;4.608;2023-09-12T08:03:53;28.70;;;12.40;;
23990;SDS011;12205;50.600;4.608;2023-09-12T08:06:20;29.60;;;12.32;;
23990;SDS011;12205;50.600;4.608;2023-09-12T08:08:49;35.22;;;13.57;;
23990;SDS011;12205;50.600;4.608;2023-09-12T08:11:16;36.88;;;13.82;;
23990;SDS011;12205;50.600;4.608;2023-09-12T08:13:43;29.13;;;12.07;;
23990;SDS011;12205;50.600;4.608;2023-09-12T08:16:12;30.52;;;12.38;;
23990;SDS011;12205;50.600;4.608;2023-09-12T08:18:40;32.40;;;12.73;;
23990;SDS011;12205;50.600;4.608;2023-09-12T08:21:07;32.25;;;13.25;;
23990;SDS011;12205;50.600;4.608;2023-09-12T08:23:34;30.25;;;12.88;;
23990;SDS011;12205;50.600;4.608;2023-09-12T08:26:01;28.80;;;11.80;;
23990;SDS011;12205;50.600;4.608;2023-09-12T08:28:28;28.80;;;11.82;;
23990;SDS011;12205;50.600;4.608;2023-09-12T08:30:55;27.13;;;11.80;;
23990;SDS011;12205;50.600;4.608;2023-09-12T08:33:22;29.42;;;12.32;;
23990;SDS011;12205;50.600;4.608;2023-09-12T08:35:50;29.45;;;12.13;;
23990;SDS011;12205;50.600;4.608;2023-09-12T08:38:17;28.00;;;11.30;;
23990;SDS011;12205;50.600;4.608;2023-09-12T08:40:47;24.52;;;10.52;;
23990;SDS011;12205;50.600;4.608;2023-09-12T08:43:15;27.15;;;11.77;;
23990;SDS011;12205;50.600;4.608;2023-09-12T08:45:42;25.05;;;11.18;;
23990;SDS011;12205;50.600;4.608;2023-09-12T08:48:10;29.92;;;11.63;;
23990;SDS011;12205;50.600;4.608;2023-09-12T08:50:37;32.65;;;12.45;;
23990;SDS011;12205;50.600;4.608;2023-09-12T08:53:06;25.45;;;11.55;;
23990;SDS011;12205;50.600;4.608;2023-09-12T08:55:33;25.98;;;11.18;;
23990;SDS011;12205;50.600;4.608;2023-09-12T08:58:01;26.00;;;10.07;;
23990;SDS011;12205;50.600;4.608;2023-09-12T09:00:29;27.40;;;10.38;;
23990;SDS011;12205;50.600;4.608;2023-09-12T09:02:56;26.20;;;9.98;;
23990;SDS011;12205;50.600;4.608;2023-09-12T09:05:24;23.40;;;10.02;;
23990;SDS011;12205;50.600;4.608;2023-09-12T09:07:51;27.15;;;9.93;;
23990;SDS011;12205;50.600;4.608;2023-09-12T09:10:22;23.75;;;9.73;;
23990;SDS011;12205;50.600;4.608;2023-09-12T09:12:49;29.50;;;10.30;;
23990;SDS011;12205;50.600;4.608;2023-09-12T09:15:23;26.95;;;10.65;;
23990;SDS011;12205;50.600;4.608;2023-09-12T09:17:51;23.20;;;9.95;;
23990;SDS011;12205;50.600;4.608;2023-09-12T09:20:22;31.02;;;11.52;;
23990;SDS011;12205;50.600;4.608;2023-09-12T09:22:56;23.15;;;8.32;;
23990;SDS011;12205;50.600;4.608;2023-09-12T09:25:25;26.20;;;9.02;;
23990;SDS011;12205;50.600;4.608;2023-09-12T09:27:53;22.20;;;8.00;;
23990;SDS011;12205;50.600;4.608;2023-09-12T09:30:25;20.25;;;8.43;;
23990;SDS011;12205;50.600;4.608;2023-09-12T09:33:06;18.13;;;7.32;;
23990;SDS011;12205;50.600;4.608;2023-09-12T09:35:33;21.70;;;8.07;;
23990;SDS011;12205;50.600;4.608;2023-09-12T09:38:00;19.27;;;7.57;;
23990;SDS011;12205;50.600;4.608;2023-09-12T09:40:30;20.95;;;7.95;;
23990;SDS011;12205;50.600;4.608;2023-09-12T09:42:58;21.33;;;7.90;;
23990;SDS011;12205;50.600;4.608;2023-09-12T09:45:26;18.55;;;7.28;;
23990;SDS011;12205;50.600;4.608;2023-09-12T09:47:56;21.65;;;8.13;;
23990;SDS011;12205;50.600;4.608;2023-09-12T09:50:24;18.92;;;7.22;;
23990;SDS011;12205;50.600;4.608;2023-09-12T09:52:53;18.52;;;6.95;;
23990;SDS011;12205;50.600;4.608;2023-09-12T09:55:23;16.30;;;7.30;;
23990;SDS011;12205;50.600;4.608;2023-09-12T09:57:52;15.48;;;6.97;;
23990;SDS011;12205;50.600;4.608;2023-09-12T10:00:20;17.45;;;7.13;;
23990;SDS011;12205;50.600;4.608;2023-09-12T10:02:49;18.85;;;6.90;;
23990;SDS011;12205;50.600;4.608;2023-09-12T10:05:17;18.88;;;6.43;;
23990;SDS011;12205;50.600;4.608;2023-09-12T10:07:47;15.15;;;5.53;;
23990;SDS011;12205;50.600;4.608;2023-09-12T10:10:16;13.23;;;5.50;;
23990;SDS011;12205;50.600;4.608;2023-09-12T10:12:48;16.38;;;5.55;;
23990;SDS011;12205;50.600;4.608;2023-09-12T10:15:18;19.30;;;6.40;;
23990;SDS011;12205;50.600;4.608;2023-09-12T10:17:54;17.42;;;5.72;;
23990;SDS011;12205;50.600;4.608;2023-09-12T10:20:24;17.25;;;6.85;;
23990;SDS011;12205;50.600;4.608;2023-09-12T10:22:55;13.45;;;5.90;;
23990;SDS011;12205;50.600;4.608;2023-09-12T10:25:32;16.27;;;5.78;;
23990;SDS011;12205;50.600;4.608;2023-09-12T10:28:01;18.20;;;5.50;;
23990;SDS011;12205;50.600;4.608;2023-09-12T10:30:31;12.95;;;5.13;;
23990;SDS011;12205;50.600;4.608;2023-09-12T10:33:00;14.77;;;5.40;;
23990;SDS011;12205;50.600;4.608;2023-09-12T10:35:29;13.55;;;5.30;;
23990;SDS011;12205;50.600;4.608;2023-09-12T10:37:59;19.77;;;6.35;;
23990;SDS011;12205;50.600;4.608;2023-09-12T10:40:29;13.73;;;4.95;;
23990;SDS011;12205;50.600;4.608;2023-09-12T10:42:57;16.25;;;5.22;;
23990;SDS011;12205;50.600;4.608;2023-09-12T10:45:26;10.23;;;4.80;;
23990;SDS011;12205;50.600;4.608;2023-09-12T10:47:55;11.70;;;4.80;;
23990;SDS011;12205;50.600;4.608;2023-09-12T10:50:22;13.60;;;4.65;;
23990;SDS011;12205;50.600;4.608;2023-09-12T10:52:49;11.98;;;3.40;;
23990;SDS011;12205;50.600;4.608;2023-09-12T10:55:16;11.52;;;4.03;;
23990;SDS011;12205;50.600;4.608;2023-09-12T10:58:03;8.70;;;3.38;;
23990;SDS011;12205;50.600;4.608;2023-09-12T11:00:30;11.45;;;3.97;;
23990;SDS011;12205;50.600;4.608;2023-09-12T11:02:59;14.60;;;4.63;;
23990;SDS011;12205;50.600;4.608;2023-09-12T11:05:50;11.48;;;3.95;;
23990;SDS011;12205;50.600;4.608;2023-09-12T11:08:19;10.75;;;4.00;;
23990;SDS011;12205;50.600;4.608;2023-09-12T11:10:53;12.00;;;3.72;;
23990;SDS011;12205;50.600;4.608;2023-09-12T11:13:45;11.20;;;3.78;;
23990;SDS011;12205;50.600;4.608;2023-09-12T11:16:13;11.80;;;3.60;;
23990;SDS011;12205;50.600;4.608;2023-09-12T11:21:41;8.68;;;3.05;;
23990;SDS011;12205;50.600;4.608;2023-09-12T11:24:09;9.45;;;3.30;;
23990;SDS011;12205;50.600;4.608;2023-09-12T11:29:20;7.78;;;2.90;;
23990;SDS011;12205;50.600;4.608;2023-09-12T11:31:52;8.60;;;2.80;;
23990;SDS011;12205;50.600;4.608;2023-09-12T11:34:26;8.50;;;3.10;;
23990;SDS011;12205;50.600;4.608;2023-09-12T11:36:55;9.80;;;2.58;;
23990;SDS011;12205;50.600;4.608;2023-09-12T11:39:25;9.32;;;2.58;;
23990;SDS011;12205;50.600;4.608;2023-09-12T11:41:56;7.93;;;2.97;;
23990;SDS011;12205;50.600;4.608;2023-09-12T11:44:24;9.10;;;2.60;;
23990;SDS011;12205;50.600;4.608;2023-09-12T11:46:52;7.32;;;2.75;;
23990;SDS011;12205;50.600;4.608;2023-09-12T11:49:18;11.32;;;3.03;;
23990;SDS011;12205;50.600;4.608;2023-09-12T11:51:46;7.13;;;2.70;;
23990;SDS011;12205;50.600;4.608;2023-09-12T11:54:14;10.13;;;2.50;;
23990;SDS011;12205;50.600;4.608;2023-09-12T11:56:41;10.43;;;2.80;;
23990;SDS011;12205;50.600;4.608;2023-09-12T11:59:09;5.25;;;2.00;;
23990;SDS011;12205;50.600;4.608;2023-09-12T12:01:36;6.47;;;2.17;;
23990;SDS011;12205;50.600;4.608;2023-09-12T12:04:03;6.22;;;1.85;;
23990;SDS011;12205;50.600;4.608;2023-09-12T12:06:32;8.70;;;2.47;;
23990;SDS011;12205;50.600;4.608;2023-09-12T12:09:00;7.05;;;1.90;;
23990;SDS011;12205;50.600;4.608;2023-09-12T12:11:29;8.38;;;2.30;;
23990;SDS011;12205;50.600;4.608;2023-09-12T12:13:57;8.45;;;2.13;;
23990;SDS011;12205;50.600;4.608;2023-09-12T12:16:26;8.68;;;2.33;;
23990;SDS011;12205;50.600;4.608;2023-09-12T12:18:53;8.30;;;2.20;;
23990;SDS011;12205;50.600;4.608;2023-09-12T12:21:22;8.75;;;2.20;;
23990;SDS011;12205;50.600;4.608;2023-09-12T12:23:57;5.93;;;1.65;;
23990;SDS011;12205;50.600;4.608;2023-09-12T12:26:25;10.52;;;2.30;;
23990;SDS011;12205;50.600;4.608;2023-09-12T12:28:52;7.32;;;1.85;;
23990;SDS011;12205;50.600;4.608;2023-09-12T12:31:19;7.40;;;2.20;;
23990;SDS011;12205;50.600;4.608;2023-09-12T12:33:49;8.05;;;2.03;;
23990;SDS011;12205;50.600;4.608;2023-09-12T12:36:16;9.57;;;1.88;;
23990;SDS011;12205;50.600;4.608;2023-09-12T12:38:43;9.40;;;2.15;;
23990;SDS011;12205;50.600;4.608;2023-09-12T12:41:13;6.47;;;1.93;;
23990;SDS011;12205;50.600;4.608;2023-09-12T12:43:40;6.63;;;2.20;;
23990;SDS011;12205;50.600;4.608;2023-09-12T12:46:10;9.13;;;2.30;;
23990;SDS011;12205;50.600;4.608;2023-09-12T12:48:38;5.80;;;1.87;;
23990;SDS011;12205;50.600;4.608;2023-09-12T12:51:17;7.05;;;1.90;;
23990;SDS011;12205;50.600;4.608;2023-09-12T12:53:45;7.50;;;1.92;;
23990;SDS011;12205;50.600;4.608;2023-09-12T12:56:14;8.48;;;2.10;;
23990;SDS011;12205;50.600;4.608;2023-09-12T12:58:47;10.38;;;2.28;;
23990;SDS011;12205;50.600;4.608;2023-09-12T13:01:15;3.90;;;1.40;;
23990;SDS011;12205;50.600;4.608;2023-09-12T13:03:42;7.13;;;1.50;;
23990;SDS011;12205;50.600;4.608;2023-09-12T13:06:12;7.78;;;1.63;;
23990;SDS011;12205;50.600;4.608;2023-09-12T13:08:41;8.20;;;1.70;;
23990;SDS011;12205;50.600;4.608;2023-09-12T13:11:09;4.75;;;1.30;;
23990;SDS011;12205;50.600;4.608;2023-09-12T13:13:36;4.38;;;1.50;;
23990;SDS011;12205;50.600;4.608;2023-09-12T13:16:04;5.07;;;1.48;;
23990;SDS011;12205;50.600;4.608;2023-09-12T13:18:31;4.25;;;1.30;;
23990;SDS011;12205;50.600;4.608;2023-09-12T13:20:58;4.03;;;1.30;;
23990;SDS011;12205;50.600;4.608;2023-09-12T13:23:25;5.38;;;1.50;;
23990;SDS011;12205;50.600;4.608;2023-09-12T13:25:54;3.30;;;1.58;;
23990;SDS011;12205;50.600;4.608;2023-09-12T13:28:22;8.52;;;1.58;;
23990;SDS011;12205;50.600;4.608;2023-09-12T13:30:50;6.72;;;1.40;;
23990;SDS011;12205;50.600;4.608;2023-09-12T13:33:17;4.63;;;1.42;;
23990;SDS011;12205;50.600;4.608;2023-09-12T13:35:44;6.53;;;1.92;;
23990;SDS011;12205;50.600;4.608;2023-09-12T13:38:11;5.25;;;2.03;;
23990;SDS011;12205;50.600;4.608;2023-09-12T13:40:39;6.68;;;2.13;;
23990;SDS011;12205;50.600;4.608;2023-09-12T13:43:08;5.97;;;1.70;;
23990;SDS011;12205;50.600;4.608;2023-09-12T13:45:35;9.85;;;1.92;;
23990;SDS011;12205;50.600;4.608;2023-09-12T13:48:03;6.40;;;1.95;;
23990;SDS011;12205;50.600;4.608;2023-09-12T13:50:31;6.70;;;2.10;;
23990;SDS011;12205;50.600;4.608;2023-09-12T13:52:58;7.22;;;1.80;;
23990;SDS011;12205;50.600;4.608;2023-09-12T13:55:25;10.45;;;2.45;;
23990;SDS011;12205;50.600;4.608;2023-09-12T13:57:52;6.70;;;2.15;;
23990;SDS011;12205;50.600;4.608;2023-09-12T14:00:21;6.80;;;2.08;;
23990;SDS011;12205;50.600;4.608;2023-09-12T14:02:48;6.18;;;2.10;;
23990;SDS011;12205;50.600;4.608;2023-09-12T14:05:14;6.72;;;2.00;;
23990;SDS011;12205;50.600;4.608;2023-09-12T14:07:41;6.32;;;1.92;;
23990;SDS011;12205;50.600;4.608;2023-09-12T14:10:09;6.30;;;2.00;;
23990;SDS011;12205;50.600;4.608;2023-09-12T14:12:36;8.15;;;2.22;;
23990;SDS011;12205;50.600;4.608;2023-09-12T14:15:03;11.73;;;2.60;;
23990;SDS011;12205;50.600;4.608;2023-09-12T14:17:33;6.85;;;2.40;;
23990;SDS011;12205;50.600;4.608;2023-09-12T14:20:00;5.65;;;2.20;;
23990;SDS011;12205;50.600;4.608;2023-09-12T14:22:26;8.25;;;1.80;;
23990;SDS011;12205;50.600;4.608;2023-09-12T14:24:54;8.65;;;1.67;;
23990;SDS011;12205;50.600;4.608;2023-09-12T14:27:21;6.03;;;2.10;;
23990;SDS011;12205;50.600;4.608;2023-09-12T14:29:49;7.95;;;1.88;;
23990;SDS011;12205;50.600;4.608;2023-09-12T14:32:16;8.20;;;1.90;;
23990;SDS011;12205;50.600;4.608;2023-09-12T14:34:44;7.55;;;1.70;;
23990;SDS011;12205;50.600;4.608;2023-09-12T14:37:11;6.53;;;1.52;;
23990;SDS011;12205;50.600;4.608;2023-09-12T14:39:38;7.57;;;1.58;;
23990;SDS011;12205;50.600;4.608;2023-09-12T14:42:05;8.23;;;1.40;;
23990;SDS011;12205;50.600;4.608;2023-09-12T14:44:34;6.95;;;1.50;;
23990;SDS011;12205;50.600;4.608;2023-09-12T14:47:01;6.57;;;1.55;;
23990;SDS011;12205;50.600;4.608;2023-09-12T14:49:28;10.05;;;1.77;;
23990;SDS011;12205;50.600;4.608;2023-09-12T14:51:56;6.70;;;1.90;;